createdAt,value
2019-05-29T00:00:36.288Z,91.20
2019-05-29T00:03:06.230Z,91.40
2019-05-29T00:05:35.864Z,91.30
2019-05-29T00:08:04.437Z,91.40
2019-05-29T00:10:33.385Z,91.20
2019-05-29T00:13:01.889Z,91.10
2019-05-29T00:15:30.406Z,91.00
2019-05-29T00:17:58.902Z,91.00
2019-05-29T00:20:27.434Z,91.00
2019-05-29T00:22:55.868Z,90.70
2019-05-29T00:25:24.380Z,90.50
2019-05-29T00:27:52.813Z,90.50
2019-05-29T00:30:21.317Z,90.40
2019-05-29T00:32:50.160Z,90.20
2019-05-29T00:35:18.685Z,90.00
2019-05-29T00:37:47.153Z,90.00
2019-05-29T00:40:17.084Z,90.00
2019-05-29T00:42:45.697Z,89.80
2019-05-29T00:45:15.523Z,90.00
2019-05-29T00:47:44.086Z,90.00
2019-05-29T00:50:14.112Z,89.80
2019-05-29T00:52:42.737Z,90.00
2019-05-29T00:55:12.515Z,89.40
2019-05-29T00:57:41.110Z,89.10
2019-05-29T01:00:11.095Z,88.80
2019-05-29T01:02:39.728Z,88.50
2019-05-29T01:05:08.354Z,88.20
2019-05-29T01:07:37.223Z,87.30
2019-05-29T01:10:06.364Z,86.80
2019-05-29T01:12:34.857Z,87.00
2019-05-29T01:15:03.721Z,86.40
2019-05-29T01:17:32.217Z,86.10
2019-05-29T01:20:00.913Z,86.50
2019-05-29T01:22:29.362Z,86.10
2019-05-29T01:24:58.233Z,85.70
2019-05-29T01:27:26.569Z,86.00
2019-05-29T01:29:55.064Z,85.30
2019-05-29T01:32:23.776Z,84.90
2019-05-29T01:34:52.422Z,84.50
2019-05-29T01:37:20.846Z,85.50
2019-05-29T01:39:49.345Z,85.30
2019-05-29T01:42:17.796Z,85.10
2019-05-29T01:44:46.292Z,84.90
2019-05-29T01:47:15.359Z,84.80
2019-05-29T01:49:44.246Z,84.50
2019-05-29T01:52:12.704Z,84.40
2019-05-29T01:54:41.289Z,84.30
2019-05-29T01:57:09.733Z,84.40
2019-05-29T01:59:38.241Z,85.20
2019-05-29T02:02:06.806Z,85.40
2019-05-29T02:04:35.309Z,84.90
2019-05-29T02:07:03.807Z,85.60
2019-05-29T02:09:32.246Z,84.70
2019-05-29T02:12:00.765Z,84.60
2019-05-29T02:14:29.190Z,84.50
2019-05-29T02:16:58.062Z,84.10
2019-05-29T02:19:26.523Z,84.40
2019-05-29T02:21:55.128Z,84.60
2019-05-29T02:24:23.550Z,84.50
2019-05-29T02:26:52.166Z,85.00
2019-05-29T02:29:21.050Z,84.60
2019-05-29T02:31:49.653Z,84.80
2019-05-29T02:34:19.850Z,85.00
2019-05-29T02:36:48.407Z,85.00
2019-05-29T02:39:18.535Z,85.10
2019-05-29T02:41:47.152Z,85.40
2019-05-29T02:44:15.601Z,86.00
2019-05-29T02:46:44.100Z,85.50
2019-05-29T02:49:13.242Z,85.50
2019-05-29T03:02:16.877Z,86.80
2019-05-29T03:04:45.375Z,87.30
2019-05-29T03:07:13.885Z,87.80
2019-05-29T03:09:42.324Z,88.70
2019-05-29T03:12:10.816Z,88.80
2019-05-29T03:14:39.253Z,89.20
2019-05-29T03:17:08.251Z,89.10
2019-05-29T03:19:36.794Z,90.00
2019-05-29T03:22:05.301Z,90.20
2019-05-29T03:24:35.200Z,90.20
2019-05-29T03:27:03.893Z,90.30
2019-05-29T03:29:34.119Z,90.30
2019-05-29T03:32:02.641Z,90.80
2019-05-29T03:34:37.294Z,90.80
2019-05-29T03:37:01.884Z,90.90
2019-05-29T03:39:30.447Z,91.10
2019-05-29T03:41:59.318Z,91.20
2019-05-29T03:44:28.706Z,91.20
2019-05-29T03:46:57.759Z,91.20
2019-05-29T03:49:26.816Z,91.20
2019-05-29T03:51:55.577Z,91.00
2019-05-29T03:54:24.023Z,90.90
2019-05-29T03:56:52.525Z,90.90
2019-05-29T03:59:21.017Z,91.00
2019-05-29T04:01:49.498Z,91.30
2019-05-29T04:04:17.933Z,91.30
2019-05-29T04:06:47.378Z,91.40
2019-05-29T04:09:16.048Z,91.20
2019-05-29T04:11:45.217Z,91.30
2019-05-29T04:14:13.663Z,91.40
2019-05-29T04:16:58.280Z,91.60
2019-05-29T04:19:15.030Z,91.90
2019-05-29T04:21:46.124Z,92.00
2019-05-29T04:24:18.112Z,92.50
2019-05-29T04:26:48.612Z,92.40
2019-05-29T04:29:17.141Z,92.30
2019-05-29T04:31:46.127Z,93.00
2019-05-29T04:34:14.445Z,92.60
2019-05-29T04:36:42.930Z,92.40
2019-05-29T04:39:11.808Z,92.80
2019-05-29T04:41:40.301Z,92.50
2019-05-29T04:44:09.208Z,92.40
2019-05-29T04:46:38.488Z,92.30
2019-05-29T04:49:07.914Z,92.40
2019-05-29T04:51:37.373Z,92.10
2019-05-29T04:54:06.073Z,92.00
2019-05-29T04:56:34.848Z,92.20
2019-05-29T04:59:03.486Z,91.60
2019-05-29T05:01:33.010Z,91.90
2019-05-29T05:04:02.059Z,91.50
2019-05-29T05:06:31.217Z,91.60
2019-05-29T05:08:59.868Z,91.20
2019-05-29T05:11:29.271Z,91.10
2019-05-29T05:14:01.452Z,91.30
2019-05-29T05:16:29.710Z,91.10
2019-05-29T05:18:58.693Z,90.70
2019-05-29T05:21:27.638Z,90.70
2019-05-29T05:23:56.476Z,90.60
2019-05-29T05:26:24.897Z,90.50
2019-05-29T05:28:53.489Z,90.50
2019-05-29T05:31:21.980Z,90.60
2019-05-29T05:33:50.376Z,90.70
2019-05-29T05:36:18.821Z,90.20
2019-05-29T05:38:47.204Z,90.10
2019-05-29T05:41:15.635Z,90.30
2019-05-29T05:43:44.129Z,90.40
2019-05-29T05:46:12.613Z,90.70
2019-05-29T05:48:41.605Z,90.40
2019-05-29T05:51:10.540Z,90.40
2019-05-29T05:53:39.565Z,90.10
2019-05-29T05:56:08.009Z,90.20
2019-05-29T05:58:37.834Z,89.70
2019-05-29T06:01:06.719Z,87.90
2019-05-29T06:03:35.921Z,86.10
2019-05-29T06:06:04.525Z,84.20
2019-05-29T06:08:33.986Z,82.80
2019-05-29T06:11:02.880Z,82.10
2019-05-29T06:13:32.145Z,80.70
2019-05-29T06:16:01.197Z,80.60
2019-05-29T06:18:29.736Z,79.30
2019-05-29T06:20:58.215Z,79.00
2019-05-29T06:23:26.797Z,77.60
2019-05-29T06:25:55.228Z,75.80
2019-05-29T06:28:23.729Z,75.80
2019-05-29T06:30:52.541Z,74.10
2019-05-29T06:33:21.030Z,75.20
2019-05-29T06:35:49.464Z,72.00
2019-05-29T06:38:17.965Z,72.50
2019-05-29T06:40:46.432Z,72.40
2019-05-29T06:43:21.536Z,68.50
2019-05-29T06:45:50.386Z,67.30
2019-05-29T06:48:43.157Z,68.50
2019-05-29T06:50:59.067Z,67.70
2019-05-29T06:53:27.640Z,66.80
2019-05-29T06:55:57.585Z,66.40
2019-05-29T06:58:26.550Z,65.00
2019-05-29T07:00:55.054Z,62.70
2019-05-29T07:03:24.205Z,62.90
2019-05-29T07:05:53.071Z,62.00
2019-05-29T07:08:37.377Z,63.10
2019-05-29T07:10:52.214Z,64.20
2019-05-29T07:13:20.745Z,62.60
2019-05-29T07:15:49.460Z,61.30
2019-05-29T07:18:17.973Z,61.40
2019-05-29T07:20:46.995Z,62.00
2019-05-29T07:23:15.698Z,62.00
2019-05-29T07:25:45.648Z,61.80
2019-05-29T07:28:14.397Z,62.00
2019-05-29T07:30:49.695Z,60.80
2019-05-29T07:33:13.508Z,60.00
2019-05-29T07:35:42.076Z,60.40
2019-05-29T07:38:10.887Z,61.60
2019-05-29T07:40:40.696Z,60.40
2019-05-29T07:43:09.622Z,60.40
2019-05-29T07:45:38.117Z,59.40
2019-05-29T07:48:06.565Z,58.20
2019-05-29T07:50:35.062Z,59.50
2019-05-29T07:53:03.532Z,59.30
2019-05-29T07:55:32.105Z,59.40
2019-05-29T07:58:00.558Z,60.00
2019-05-29T08:00:35.885Z,59.30
2019-05-29T08:02:59.729Z,58.50
2019-05-29T08:05:28.240Z,57.90
2019-05-29T08:07:56.665Z,58.40
2019-05-29T08:10:25.269Z,58.80
2019-05-29T08:12:55.768Z,59.20
2019-05-29T08:15:24.382Z,59.90
2019-05-29T08:17:52.863Z,59.50
2019-05-29T08:20:21.733Z,59.20
2019-05-29T08:22:50.593Z,59.70
2019-05-29T08:25:19.557Z,59.60
2019-05-29T08:27:48.900Z,60.40
2019-05-29T08:30:18.980Z,60.30
2019-05-29T08:32:47.445Z,60.20
2019-05-29T08:35:15.923Z,59.70
2019-05-29T08:37:44.996Z,59.60
2019-05-29T08:42:45.786Z,59.50
2019-05-29T08:45:16.512Z,59.90
2019-05-29T08:47:45.614Z,59.20
2019-05-29T08:50:18.714Z,59.30
2019-05-29T08:52:45.996Z,60.00
2019-05-29T08:55:14.972Z,60.40
2019-05-29T08:57:44.208Z,59.90
2019-05-29T09:00:13.753Z,59.20
2019-05-29T09:02:42.592Z,58.50
2019-05-29T09:05:11.967Z,57.90
2019-05-29T09:07:40.870Z,59.20
2019-05-29T09:10:09.525Z,60.30
2019-05-29T09:12:38.010Z,58.70
2019-05-29T09:15:06.599Z,58.50
2019-05-29T09:17:37.494Z,59.30
2019-05-29T09:20:06.717Z,58.60
2019-05-29T09:22:36.163Z,59.50
2019-05-29T09:25:05.261Z,59.20
2019-05-29T09:27:33.741Z,58.60
2019-05-29T09:30:02.267Z,58.70
2019-05-29T09:32:48.767Z,59.10
2019-05-29T09:35:02.190Z,58.70
2019-05-29T09:37:50.196Z,58.50
2019-05-29T09:40:20.996Z,57.50
2019-05-29T09:42:49.912Z,57.10
2019-05-29T09:45:19.569Z,57.50
2019-05-29T09:47:48.645Z,57.00
2019-05-29T09:50:18.728Z,57.10
2019-05-29T09:52:48.255Z,56.90
2019-05-29T09:55:16.777Z,56.80
2019-05-29T09:57:45.265Z,56.80
2019-05-29T10:00:13.890Z,57.20
2019-05-29T10:02:42.378Z,55.50
2019-05-29T10:05:10.813Z,56.60
2019-05-29T10:07:40.064Z,56.80
2019-05-29T10:10:10.566Z,56.90
2019-05-29T10:12:39.061Z,57.60
2019-05-29T10:15:08.502Z,56.90
2019-05-29T10:17:37.373Z,57.10
2019-05-29T10:20:06.030Z,57.10
2019-05-29T10:22:35.031Z,57.20
2019-05-29T10:25:05.874Z,56.80
2019-05-29T10:27:35.332Z,56.70
2019-05-29T10:30:05.868Z,57.20
2019-05-29T10:32:36.169Z,57.30
2019-05-29T10:35:05.737Z,55.50
2019-05-29T10:37:34.607Z,55.60
2019-05-29T10:40:03.181Z,56.40
2019-05-29T10:42:31.952Z,56.20
2019-05-29T10:45:00.376Z,56.90
2019-05-29T10:47:28.887Z,55.90
2019-05-29T10:49:57.335Z,54.80
2019-05-29T10:52:25.828Z,55.50
2019-05-29T10:54:54.490Z,55.50
2019-05-29T10:57:23.072Z,54.80
2019-05-29T10:59:52.802Z,54.00
2019-05-29T11:02:21.470Z,54.60
2019-05-29T11:04:54.603Z,55.90
2019-05-29T11:07:20.217Z,54.70
2019-05-29T11:09:50.165Z,53.90
2019-05-29T11:12:19.365Z,54.40
2019-05-29T11:14:48.513Z,54.10
2019-05-29T11:17:17.076Z,54.50
2019-05-29T11:19:45.565Z,54.60
2019-05-29T11:22:25.672Z,54.70
2019-05-29T11:24:44.361Z,54.50
2019-05-29T11:27:12.794Z,53.60
2019-05-29T11:29:41.818Z,53.90
2019-05-29T11:32:10.846Z,53.70
2019-05-29T11:34:39.369Z,53.50
2019-05-29T11:37:08.374Z,53.60
2019-05-29T11:39:37.511Z,53.80
2019-05-29T11:42:06.514Z,53.50
2019-05-29T11:44:35.009Z,54.10
2019-05-29T11:47:03.661Z,52.60
2019-05-29T11:49:32.141Z,52.90
2019-05-29T11:52:22.866Z,53.70
2019-05-29T11:54:30.875Z,53.30
2019-05-29T11:56:59.327Z,52.30
2019-05-29T11:59:27.895Z,52.20
2019-05-29T12:01:57.389Z,52.00
2019-05-29T12:04:27.192Z,52.80
2019-05-29T12:06:55.727Z,53.40
2019-05-29T12:09:32.805Z,52.00
2019-05-29T12:11:55.962Z,52.50
2019-05-29T12:14:24.659Z,52.20
2019-05-29T12:16:54.142Z,52.70
2019-05-29T12:19:23.918Z,53.10
2019-05-29T12:21:54.305Z,52.60
2019-05-29T12:24:23.167Z,53.50
2019-05-29T12:26:52.423Z,53.70
2019-05-29T12:29:21.286Z,52.50
2019-05-29T12:31:49.785Z,54.10
2019-05-29T12:34:19.435Z,53.80
2019-05-29T12:36:48.316Z,53.50
2019-05-29T12:39:16.869Z,54.80
2019-05-29T12:41:45.370Z,54.30
2019-05-29T12:44:13.880Z,52.90
2019-05-29T12:46:42.744Z,53.30
2019-05-29T12:49:11.240Z,52.70
2019-05-29T12:51:39.679Z,52.60
2019-05-29T12:54:08.753Z,52.80
2019-05-29T12:56:37.179Z,53.70
2019-05-29T13:05:34.053Z,52.10
2019-05-29T13:08:03.064Z,51.70
2019-05-29T13:10:32.377Z,52.70
2019-05-29T13:13:07.038Z,51.70
2019-05-29T13:15:31.226Z,52.50
2019-05-29T13:18:04.156Z,52.30
2019-05-29T13:20:30.153Z,52.60
2019-05-29T13:23:02.734Z,53.00
2019-05-29T13:25:32.765Z,53.50
2019-05-29T13:28:03.063Z,53.00
2019-05-29T13:30:32.464Z,52.60
2019-05-29T13:33:06.549Z,51.60
2019-05-29T13:35:34.194Z,51.80
2019-05-29T13:38:03.265Z,51.50
2019-05-29T13:40:33.910Z,51.40
2019-05-29T13:43:11.476Z,51.80
2019-05-29T13:45:32.860Z,50.80
2019-05-29T13:48:08.069Z,52.00
2019-05-29T13:50:36.543Z,51.30
2019-05-29T13:53:05.489Z,51.40
2019-05-29T13:55:34.173Z,52.10
2019-05-29T13:58:03.798Z,51.30
2019-05-29T14:00:39.722Z,50.50
2019-05-29T14:03:13.978Z,51.40
2019-05-29T14:05:42.482Z,51.10
2019-05-29T14:09:04.945Z,50.60
2019-05-29T14:14:31.963Z,49.70
2019-05-29T14:17:00.468Z,49.30
2019-05-29T14:19:28.902Z,49.10
2019-05-29T14:21:57.585Z,48.90
2019-05-29T14:24:29.472Z,49.50
2019-05-29T14:26:56.246Z,50.00
2019-05-29T14:29:25.163Z,49.60
2019-05-29T14:31:55.199Z,49.50
2019-05-29T14:34:23.663Z,49.30
2019-05-29T14:36:52.174Z,49.30
2019-05-29T14:39:20.687Z,49.70
2019-05-29T14:41:49.874Z,49.50
2019-05-29T14:44:18.325Z,49.60
2019-05-29T14:46:46.812Z,49.80
2019-05-29T14:49:15.812Z,48.60
2019-05-29T14:51:44.317Z,47.60
2019-05-29T14:54:13.135Z,48.20
2019-05-29T14:56:42.193Z,49.10
2019-05-29T14:59:11.266Z,48.60
2019-05-29T15:01:39.881Z,49.00
2019-05-29T15:04:09.589Z,48.90
2019-05-29T15:06:38.223Z,50.10
2019-05-29T15:09:07.665Z,49.10
2019-05-29T15:11:36.374Z,48.20
2019-05-29T15:14:06.111Z,47.90
2019-05-29T15:16:34.929Z,48.10
2019-05-29T15:19:04.956Z,48.50
2019-05-29T15:21:33.577Z,48.30
2019-05-29T15:24:02.555Z,48.60
2019-05-29T15:26:31.217Z,48.60
2019-05-29T15:29:00.031Z,49.10
2019-05-29T15:31:28.985Z,47.60
2019-05-29T15:33:58.414Z,48.40
2019-05-29T15:36:26.994Z,49.60
2019-05-29T15:38:55.804Z,49.20
2019-05-29T15:41:24.434Z,49.30
2019-05-29T15:43:52.865Z,49.30
2019-05-29T15:46:21.369Z,49.40
2019-05-29T15:48:50.377Z,49.10
2019-05-29T15:51:21.720Z,49.20
2019-05-29T15:53:49.289Z,49.60
2019-05-29T15:56:27.157Z,48.50
2019-05-29T15:58:48.022Z,48.20
2019-05-29T16:01:17.985Z,48.20
2019-05-29T16:03:46.717Z,48.10
2019-05-29T16:06:16.006Z,47.90
2019-05-29T16:08:45.090Z,48.20
2019-05-29T16:11:14.625Z,47.80
2019-05-29T16:13:43.249Z,47.30
2019-05-29T16:16:12.871Z,47.50
2019-05-29T16:18:41.581Z,48.00
2019-05-29T16:21:10.635Z,48.90
2019-05-29T16:23:39.218Z,49.40
2019-05-29T16:26:07.670Z,49.50
2019-05-29T16:28:36.153Z,50.60
2019-05-29T16:31:04.624Z,50.60
2019-05-29T16:33:33.165Z,50.10
2019-05-29T16:36:01.677Z,49.90
2019-05-29T16:38:30.794Z,49.60
2019-05-29T16:40:59.378Z,50.30
2019-05-29T16:43:27.902Z,49.40
2019-05-29T16:45:56.413Z,49.60
2019-05-29T16:48:24.914Z,49.30
2019-05-29T16:50:54.017Z,49.30
2019-05-29T16:53:23.319Z,49.50
2019-05-29T16:55:54.080Z,49.90
2019-05-29T16:58:23.259Z,50.20
2019-05-29T17:00:51.735Z,50.10
2019-05-29T17:03:20.210Z,50.10
2019-05-29T17:05:48.641Z,50.10
2019-05-29T17:08:18.143Z,49.70
2019-05-29T17:10:46.720Z,49.40
2019-05-29T17:13:16.482Z,49.60
2019-05-29T17:15:45.054Z,49.60
2019-05-29T17:18:14.705Z,49.60
2019-05-29T17:20:44.626Z,49.80
2019-05-29T17:23:14.879Z,50.20
2019-05-29T17:25:43.957Z,50.10
2019-05-29T17:28:12.445Z,50.60
2019-05-29T17:30:40.879Z,51.00
2019-05-29T17:33:10.861Z,51.00
2019-05-29T17:35:39.289Z,50.90
2019-05-29T17:38:07.776Z,51.10
2019-05-29T17:40:36.393Z,51.40
2019-05-29T17:43:04.924Z,51.50
2019-05-29T17:45:33.358Z,51.60
2019-05-29T17:48:01.822Z,51.50
2019-05-29T17:50:30.257Z,51.90
2019-05-29T17:52:58.758Z,52.30
2019-05-29T17:55:27.184Z,50.70
2019-05-29T17:57:55.972Z,50.30
2019-05-29T18:00:24.722Z,50.10
2019-05-29T18:02:53.385Z,50.10
2019-05-29T18:05:22.921Z,50.60
2019-05-29T18:07:51.352Z,50.20
2019-05-29T18:10:22.012Z,50.40
2019-05-29T18:13:09.510Z,50.30
2019-05-29T18:15:37.989Z,50.20
2019-05-29T18:18:06.714Z,50.60
2019-05-29T18:20:35.221Z,50.80
2019-05-29T18:23:03.683Z,51.90
2019-05-29T18:25:32.162Z,51.30
2019-05-29T18:28:00.731Z,51.40
2019-05-29T18:30:29.329Z,51.40
2019-05-29T18:32:57.813Z,52.00
2019-05-29T18:35:27.072Z,51.30
2019-05-29T18:37:55.657Z,51.80
2019-05-29T18:40:28.403Z,51.40
2019-05-29T18:42:57.321Z,51.60
2019-05-29T18:45:26.756Z,51.60
2019-05-29T18:47:56.159Z,51.90
2019-05-29T18:50:25.624Z,51.90
2019-05-29T18:52:54.310Z,52.00
2019-05-29T18:55:23.287Z,52.50
2019-05-29T18:57:53.042Z,52.80
2019-05-29T19:00:23.374Z,53.20
2019-05-29T19:02:52.272Z,54.10
2019-05-29T19:05:21.598Z,55.10
2019-05-29T19:07:51.163Z,55.30
2019-05-29T19:10:21.679Z,56.60
2019-05-29T19:12:53.257Z,57.90
2019-05-29T19:15:24.232Z,57.20
2019-05-29T19:17:53.859Z,56.50
2019-05-29T19:20:24.582Z,57.80
2019-05-29T19:22:54.683Z,57.70
2019-05-29T19:25:24.636Z,57.70
2019-05-29T19:27:57.113Z,58.00
2019-05-29T19:30:29.376Z,59.80
2019-05-29T19:32:59.202Z,59.50
2019-05-29T19:35:29.607Z,60.80
2019-05-29T19:37:59.690Z,60.30
2019-05-29T19:40:30.209Z,60.20
2019-05-29T19:42:59.940Z,60.10
2019-05-29T19:45:30.544Z,59.30
2019-05-29T19:48:00.180Z,61.00
2019-05-29T19:50:30.987Z,60.40
2019-05-29T19:53:01.040Z,60.20
2019-05-29T19:55:34.949Z,60.50
2019-05-29T19:58:06.044Z,60.30
2019-05-29T20:00:36.292Z,61.00
2019-05-29T20:03:06.316Z,61.60
2019-05-29T20:05:38.445Z,60.30
2019-05-29T20:08:08.916Z,60.80
2019-05-29T20:10:38.790Z,60.30
2019-05-29T20:13:08.457Z,60.50
2019-05-29T20:15:38.287Z,59.90
2019-05-29T20:18:09.033Z,59.60
2019-05-29T20:20:38.927Z,59.40
2019-05-29T20:23:09.293Z,59.70
2019-05-29T20:25:39.203Z,60.50
2019-05-29T20:28:08.796Z,60.50
2019-05-29T20:30:38.831Z,60.80
2019-05-29T20:33:09.002Z,60.80
2019-05-29T20:35:39.440Z,60.70
2019-05-29T20:38:09.386Z,60.30
2019-05-29T20:40:39.464Z,61.10
2019-05-29T20:43:09.495Z,60.80
2019-05-29T20:45:39.759Z,61.00
2019-05-29T20:48:09.816Z,60.80
2019-05-29T20:50:40.212Z,60.30
2019-05-29T20:53:10.554Z,60.20
2019-05-29T20:55:41.876Z,59.70
2019-05-29T20:58:24.200Z,59.60
2019-05-29T21:00:43.296Z,59.70
2019-05-29T21:03:12.890Z,60.00
2019-05-29T21:05:43.166Z,60.40
2019-05-29T21:08:12.355Z,59.90
2019-05-29T21:10:42.059Z,59.80
2019-05-29T21:13:11.352Z,60.40
2019-05-29T21:15:40.181Z,60.30
2019-05-29T21:18:08.853Z,60.70
2019-05-29T21:20:38.355Z,61.70
2019-05-29T21:23:07.017Z,62.40
2019-05-29T21:25:36.571Z,62.10
2019-05-29T21:28:05.841Z,62.20
2019-05-29T21:30:35.505Z,61.70
2019-05-29T21:33:04.445Z,62.10
2019-05-29T21:35:32.889Z,62.20
2019-05-29T21:38:01.483Z,62.90
2019-05-29T21:40:29.921Z,63.70
2019-05-29T21:42:58.520Z,62.30
2019-05-29T21:45:27.516Z,62.00
2019-05-29T21:47:56.016Z,61.70
2019-05-29T21:50:24.449Z,62.40
2019-05-29T21:52:53.302Z,62.20
2019-05-29T21:55:21.738Z,63.70
2019-05-29T21:57:50.437Z,63.70
2019-05-29T22:00:46.303Z,63.30
2019-05-29T22:03:14.877Z,63.40
2019-05-29T22:05:44.625Z,64.00
2019-05-29T22:08:13.425Z,64.40
2019-05-29T22:10:41.862Z,64.10
2019-05-29T22:13:10.358Z,65.00
2019-05-29T22:15:38.855Z,66.20
2019-05-29T22:18:07.345Z,65.90
2019-05-29T22:20:35.777Z,65.10
2019-05-29T22:23:04.281Z,64.40
2019-05-29T22:25:34.541Z,64.90
2019-05-29T22:28:03.090Z,64.20
2019-05-29T22:30:31.538Z,63.60
2019-05-29T22:33:00.018Z,63.40
2019-05-29T22:35:28.464Z,63.50
2019-05-29T22:37:57.714Z,63.80
2019-05-29T22:40:26.288Z,63.80
2019-05-29T22:42:55.597Z,65.90
2019-05-29T22:45:24.741Z,65.20
2019-05-29T22:47:53.736Z,65.30
2019-05-29T22:50:22.305Z,65.10
2019-05-29T22:52:51.766Z,66.20
2019-05-29T22:55:20.453Z,65.70
2019-05-29T22:57:49.366Z,66.20
2019-05-29T23:00:17.974Z,66.20
2019-05-29T23:02:46.857Z,66.50
2019-05-29T23:05:15.993Z,66.50
2019-05-29T23:07:44.589Z,66.60
2019-05-29T23:10:14.396Z,66.00
2019-05-29T23:12:42.888Z,65.70
2019-05-29T23:15:11.393Z,66.00
2019-05-29T23:17:39.961Z,66.50
2019-05-29T23:20:09.325Z,66.70
2019-05-29T23:22:37.765Z,66.60
2019-05-29T23:25:06.791Z,68.00
2019-05-29T23:27:35.445Z,68.10
2019-05-29T23:30:04.105Z,67.80
2019-05-29T23:32:32.538Z,68.00
2019-05-29T23:35:01.491Z,68.60
2019-05-29T23:37:29.935Z,69.50
2019-05-29T23:39:59.303Z,70.10
2019-05-29T23:42:27.984Z,69.90
2019-05-29T23:44:57.619Z,70.10
2019-05-29T23:47:26.590Z,69.60
2019-05-29T23:49:55.535Z,69.40
2019-05-29T23:52:24.238Z,69.00
2019-05-29T23:54:53.553Z,68.80
2019-05-29T23:57:22.126Z,68.80
